Time;durP1;ratioP1;P1;durP2;ratioP2;P2;SDS_P1;SDS_P2;PMS_P1;PMS_P2;Temp;Humidity;BMP_temperature;BMP_pressure;BME280_temperature;BME280_humidity;BME280_pressure;Samples;Min_cycle;Max_cycle;Signal;HPM_P1;HPM_P2
2021/06/15 00:00:54;;;;;;;;;;;25.30;37.50;;;;;;1483327;40;19947;-72
2021/06/15 00:02:15;;;;;;;;;;;25.30;38.00;;;;;;1482915;40;19947;-72
2021/06/15 00:03:36;;;;;;;;;;;25.20;38.40;;;;;;1481512;40;19932;-72
2021/06/15 00:04:56;;;;;;;;;;;25.20;38.00;;;;;;1481151;40;19940;-72
2021/06/15 00:06:17;;;;;;;;;;;25.20;38.30;;;;;;1483111;40;19944;-73
2021/06/15 00:07:39;;;;;;;;;;;25.20;38.90;;;;;;1483170;40;20036;-72
2021/06/15 00:08:59;;;;;;;;;;;25.10;38.40;;;;;;1481738;40;19932;-73
2021/06/15 00:10:21;;;;;;;;;;;25.10;38.40;;;;;;1481908;40;20257;-72
2021/06/15 00:11:43;;;;;;;;;;;25.10;38.60;;;;;;1483655;40;19952;-72
2021/06/15 00:13:04;;;;;;;;;;;25.10;38.20;;;;;;1482367;40;19984;-72
2021/06/15 00:14:25;;;;;;;;;;;25.10;37.80;;;;;;1482239;40;19940;-72
2021/06/15 00:15:48;;;;;;;;;;;25.10;37.90;;;;;;1481491;40;19936;-72
2021/06/15 00:17:09;;;;;;;;;;;25.00;37.90;;;;;;1479450;40;20032;-73
2021/06/15 00:18:30;;;;;;;;;;;25.00;38.10;;;;;;1481143;40;20464;-72
2021/06/15 00:19:51;;;;;;;;;;;25.00;38.20;;;;;;1480813;40;20293;-72
2021/06/15 00:21:12;;;;;;;;;;;25.00;38.40;;;;;;1481571;40;20253;-72
2021/06/15 00:22:33;;;;;;;;;;;25.00;38.40;;;;;;1480997;40;19967;-72
2021/06/15 00:23:54;;;;;;;;;;;24.90;38.50;;;;;;1481106;40;19992;-72
2021/06/15 00:25:15;;;;;;;;;;;24.90;38.40;;;;;;1480963;40;19939;-72
2021/06/15 00:26:36;;;;;;;;;;;24.90;38.50;;;;;;1481430;40;19952;-72
2021/06/15 00:27:57;;;;;;;;;;;24.90;38.50;;;;;;1481440;40;19932;-72
2021/06/15 00:29:18;;;;;;;;;;;24.80;38.20;;;;;;1480496;40;19991;-72
2021/06/15 00:30:39;;;;;;;;;;;24.80;38.40;;;;;;1482677;40;19990;-73
2021/06/15 00:31:59;;;;;;;;;;;24.80;38.20;;;;;;1480565;40;19947;-73
2021/06/15 00:33:20;;;;;;;;;;;24.80;38.40;;;;;;1481024;40;19944;-73
2021/06/15 00:34:41;;;;;;;;;;;24.80;38.40;;;;;;1482547;40;19960;-72
2021/06/15 00:36:02;;;;;;;;;;;24.80;38.80;;;;;;1482813;40;19947;-73
2021/06/15 00:37:23;;;;;;;;;;;24.80;38.70;;;;;;1482728;40;19943;-73
2021/06/15 00:38:43;;;;;;;;;;;24.80;38.50;;;;;;1482054;40;19948;-72
2021/06/15 00:40:05;;;;;;;;;;;24.70;38.30;;;;;;1483032;40;19939;-73
2021/06/15 00:41:26;;;;;;;;;;;24.70;38.50;;;;;;1482248;40;19941;-73
2021/06/15 00:42:46;;;;;;;;;;;24.70;38.80;;;;;;1482574;40;19936;-73
2021/06/15 00:44:08;;;;;;;;;;;24.60;38.90;;;;;;1482036;40;19976;-73
2021/06/15 00:45:31;;;;;;;;;;;24.60;38.90;;;;;;1480967;40;19936;-73
2021/06/15 00:46:52;;;;;;;;;;;24.60;39.00;;;;;;1482790;40;20500;-72
2021/06/15 00:48:26;;;;;;;;;;;24.60;39.10;;;;;;1480379;40;19936;-73
2021/06/15 00:49:47;;;;;;;;;;;24.60;38.80;;;;;;1482518;40;19937;-72
2021/06/15 00:51:09;;;;;;;;;;;24.50;38.80;;;;;;1481236;40;19940;-72
2021/06/15 00:52:30;;;;;;;;;;;24.50;38.70;;;;;;1482968;40;19936;-72
2021/06/15 00:53:51;;;;;;;;;;;24.50;38.70;;;;;;1483672;40;19936;-72
2021/06/15 00:55:12;;;;;;;;;;;24.50;38.60;;;;;;1481842;40;19940;-72
2021/06/15 00:56:33;;;;;;;;;;;24.50;39.00;;;;;;1482076;40;19928;-72
2021/06/15 00:57:54;;;;;;;;;;;24.50;39.10;;;;;;1481110;40;20275;-72
2021/06/15 00:59:15;;;;;;;;;;;24.40;39.40;;;;;;1482044;40;20259;-72
2021/06/15 01:00:35;;;;;;;;;;;24.40;39.90;;;;;;1481356;40;19932;-72
2021/06/15 01:01:56;;;;;;;;;;;24.40;39.50;;;;;;1481737;40;19964;-72
2021/06/15 01:03:18;;;;;;;;;;;24.40;39.30;;;;;;1482536;40;19939;-72
2021/06/15 01:04:38;;;;;;;;;;;24.30;39.30;;;;;;1482350;40;19988;-72
2021/06/15 01:06:02;;;;;;;;;;;24.30;39.50;;;;;;1483159;40;19943;-72
2021/06/15 01:07:44;;;;;;;;;;;24.30;39.60;;;;;;1480591;40;19941;-72
2021/06/15 01:09:10;;;;;;;;;;;24.30;39.70;;;;;;1483533;40;19932;-72
2021/06/15 01:10:40;;;;;;;;;;;24.30;39.40;;;;;;1481182;40;19940;-72
2021/06/15 01:12:16;;;;;;;;;;;24.30;39.80;;;;;;1482694;40;20182;-72
2021/06/15 01:13:43;;;;;;;;;;;24.30;40.00;;;;;;1481351;40;20029;-73
2021/06/15 01:15:07;;;;;;;;;;;24.20;40.20;;;;;;1482396;39;19937;-73
2021/06/15 01:16:34;;;;;;;;;;;24.20;40.20;;;;;;1482993;40;19936;-72
2021/06/15 01:17:57;;;;;;;;;;;24.20;39.80;;;;;;1481030;40;19940;-73
2021/06/15 01:19:21;;;;;;;;;;;24.20;39.90;;;;;;1482716;40;19936;-72
2021/06/15 01:20:45;;;;;;;;;;;24.20;40.40;;;;;;1483432;40;20385;-73
2021/06/15 01:22:08;;;;;;;;;;;24.10;39.60;;;;;;1482437;40;19952;-73
2021/06/15 01:23:41;;;;;;;;;;;24.10;40.00;;;;;;1482686;40;19944;-73
2021/06/15 01:25:31;;;;;;;;;;;24.10;40.80;;;;;;1481388;40;19951;-73
2021/06/15 01:26:52;;;;;;;;;;;24.10;40.90;;;;;;1480377;40;20213;-72
2021/06/15 01:28:12;;;;;;;;;;;24.10;40.80;;;;;;1482085;40;19936;-73
2021/06/15 01:29:35;;;;;;;;;;;24.10;40.80;;;;;;1481947;40;19932;-72
2021/06/15 01:30:56;;;;;;;;;;;24.10;40.90;;;;;;1481171;40;19940;-72
2021/06/15 01:32:23;;;;;;;;;;;24.10;40.90;;;;;;1480607;40;20357;-73
2021/06/15 01:33:51;;;;;;;;;;;24.00;41.10;;;;;;1485697;40;19932;-73
2021/06/15 01:35:12;;;;;;;;;;;24.00;40.40;;;;;;1482413;40;19944;-73
2021/06/15 01:36:36;;;;;;;;;;;24.00;39.90;;;;;;1482302;40;19943;-73
2021/06/15 01:38:05;;;;;;;;;;;24.10;40.00;;;;;;1484614;40;19964;-73
2021/06/15 01:39:28;;;;;;;;;;;24.00;40.40;;;;;;1481493;40;19994;-73
2021/06/15 01:40:54;;;;;;;;;;;24.00;39.90;;;;;;1482177;40;20356;-73
2021/06/15 01:42:15;;;;;;;;;;;24.00;39.90;;;;;;1481278;40;19940;-72
2021/06/15 01:43:56;;;;;;;;;;;24.00;40.00;;;;;;1481108;40;19943;-72
2021/06/15 01:45:24;;;;;;;;;;;23.90;40.70;;;;;;1482613;40;20463;-73
2021/06/15 01:46:50;;;;;;;;;;;23.90;40.70;;;;;;1482573;40;19937;-72
2021/06/15 01:48:27;;;;;;;;;;;23.90;40.30;;;;;;1481191;40;19945;-72
2021/06/15 01:49:52;;;;;;;;;;;23.90;40.50;;;;;;1482957;40;19933;-72
2021/06/15 01:51:14;;;;;;;;;;;23.90;40.50;;;;;;1481616;40;20233;-72
2021/06/15 01:52:36;;;;;;;;;;;23.90;40.70;;;;;;1479590;40;19933;-72
2021/06/15 01:54:09;;;;;;;;;;;23.90;40.20;;;;;;1480548;40;19952;-72
2021/06/15 01:55:31;;;;;;;;;;;23.80;40.40;;;;;;1483255;40;20587;-72
2021/06/15 01:56:52;;;;;;;;;;;23.80;40.40;;;;;;1482028;40;19937;-72
2021/06/15 01:58:14;;;;;;;;;;;23.80;40.70;;;;;;1482160;40;19932;-73
2021/06/15 01:59:36;;;;;;;;;;;23.80;40.90;;;;;;1479241;40;20308;-72
2021/06/15 02:00:57;;;;;;;;;;;23.80;41.30;;;;;;1480293;40;20291;-72
2021/06/15 02:02:18;;;;;;;;;;;23.70;41.40;;;;;;1482321;40;19936;-72
2021/06/15 02:03:39;;;;;;;;;;;23.70;41.20;;;;;;1482002;40;19972;-72
2021/06/15 02:05:00;;;;;;;;;;;23.70;40.90;;;;;;1480111;40;19948;-72
2021/06/15 02:06:22;;;;;;;;;;;23.70;41.20;;;;;;1483162;40;19936;-73
2021/06/15 02:07:45;;;;;;;;;;;23.70;41.40;;;;;;1482927;40;20237;-72
2021/06/15 02:09:07;;;;;;;;;;;23.70;41.00;;;;;;1477273;40;19949;-72
2021/06/15 02:10:30;;;;;;;;;;;23.70;41.30;;;;;;1480477;40;20150;-73
2021/06/15 02:11:51;;;;;;;;;;;23.70;41.50;;;;;;1483226;40;19932;-74
2021/06/15 02:13:13;;;;;;;;;;;23.70;41.60;;;;;;1481920;40;19932;-72
2021/06/15 02:14:34;;;;;;;;;;;23.70;41.30;;;;;;1482873;40;19936;-72
2021/06/15 02:15:57;;;;;;;;;;;23.70;40.90;;;;;;1481780;40;20378;-72
2021/06/15 02:17:18;;;;;;;;;;;23.60;40.90;;;;;;1482174;40;19949;-72
2021/06/15 02:18:41;;;;;;;;;;;23.60;41.00;;;;;;1482266;40;19947;-72
2021/06/15 02:20:03;;;;;;;;;;;23.60;41.10;;;;;;1481759;40;19941;-72
2021/06/15 02:21:24;;;;;;;;;;;23.60;41.60;;;;;;1482818;40;19937;-72
2021/06/15 02:22:47;;;;;;;;;;;23.60;41.70;;;;;;1482745;40;20021;-72
2021/06/15 02:24:08;;;;;;;;;;;23.60;41.70;;;;;;1483504;40;19947;-73
2021/06/15 02:25:30;;;;;;;;;;;23.50;41.70;;;;;;1481843;40;20021;-72
2021/06/15 02:26:51;;;;;;;;;;;23.50;42.10;;;;;;1482403;40;20301;-72
2021/06/15 02:28:12;;;;;;;;;;;23.50;41.90;;;;;;1482483;40;20025;-72
2021/06/15 02:29:33;;;;;;;;;;;23.60;41.70;;;;;;1484667;40;19936;-72
2021/06/15 02:30:54;;;;;;;;;;;23.50;41.60;;;;;;1482755;40;20316;-72
2021/06/15 02:32:16;;;;;;;;;;;23.50;41.90;;;;;;1482785;40;20033;-72
2021/06/15 02:33:41;;;;;;;;;;;23.50;42.00;;;;;;1482525;40;19944;-72
2021/06/15 02:35:06;;;;;;;;;;;23.50;42.00;;;;;;1480436;40;20033;-73
2021/06/15 02:36:29;;;;;;;;;;;23.50;41.30;;;;;;1482672;40;20219;-72
2021/06/15 02:37:59;;;;;;;;;;;23.50;41.40;;;;;;1482528;40;19940;-72
2021/06/15 02:39:21;;;;;;;;;;;23.40;41.40;;;;;;1482485;40;19936;-72
2021/06/15 02:40:42;;;;;;;;;;;23.40;41.20;;;;;;1482163;40;19936;-72
2021/06/15 02:42:07;;;;;;;;;;;23.40;41.40;;;;;;1482588;40;20229;-72
2021/06/15 02:43:28;;;;;;;;;;;23.40;41.20;;;;;;1481526;40;19948;-73
2021/06/15 02:44:49;;;;;;;;;;;23.40;42.10;;;;;;1483814;40;19939;-72
2021/06/15 02:46:12;;;;;;;;;;;23.40;41.70;;;;;;1483236;40;19948;-72
2021/06/15 02:47:34;;;;;;;;;;;23.30;42.00;;;;;;1482577;40;19944;-72
2021/06/15 02:48:56;;;;;;;;;;;23.30;42.10;;;;;;1482488;40;19933;-73
2021/06/15 02:50:19;;;;;;;;;;;23.30;42.20;;;;;;1482095;40;20247;-72
2021/06/15 02:51:44;;;;;;;;;;;23.30;42.10;;;;;;1481039;40;19980;-72
2021/06/15 02:53:10;;;;;;;;;;;23.20;41.90;;;;;;1482877;40;19936;-72
2021/06/15 02:54:33;;;;;;;;;;;23.20;41.80;;;;;;1481292;40;19933;-73
2021/06/15 02:55:57;;;;;;;;;;;23.20;41.70;;;;;;1483045;40;20020;-73
2021/06/15 02:57:19;;;;;;;;;;;23.20;42.20;;;;;;1483201;40;19939;-73
2021/06/15 02:58:39;;;;;;;;;;;23.20;41.70;;;;;;1482517;40;21198;-73
2021/06/15 03:00:00;;;;;;;;;;;23.20;41.50;;;;;;1482347;40;19940;-73
2021/06/15 03:01:21;;;;;;;;;;;23.20;41.40;;;;;;1481224;40;19988;-72
2021/06/15 03:02:42;;;;;;;;;;;23.20;41.30;;;;;;1480496;40;19932;-73
2021/06/15 03:04:03;;;;;;;;;;;23.10;41.40;;;;;;1481796;40;19966;-72
2021/06/15 03:05:24;;;;;;;;;;;23.10;41.30;;;;;;1482976;40;19940;-72
2021/06/15 03:06:45;;;;;;;;;;;23.10;41.80;;;;;;1481981;40;19963;-73
2021/06/15 03:08:08;;;;;;;;;;;23.10;41.80;;;;;;1482223;40;20241;-72
2021/06/15 03:09:29;;;;;;;;;;;23.10;42.30;;;;;;1483071;40;19932;-73
2021/06/15 03:10:50;;;;;;;;;;;23.10;42.50;;;;;;1483624;40;19944;-72
2021/06/15 03:12:13;;;;;;;;;;;23.10;42.70;;;;;;1482825;40;19944;-72
2021/06/15 03:13:52;;;;;;;;;;;23.10;42.80;;;;;;1483731;40;19944;-73
2021/06/15 03:15:14;;;;;;;;;;;23.10;43.10;;;;;;1485033;39;19936;-73
2021/06/15 03:16:35;;;;;;;;;;;23.00;43.00;;;;;;1482965;40;19944;-73
2021/06/15 03:18:01;;;;;;;;;;;23.00;42.50;;;;;;1483312;40;19937;-73
2021/06/15 03:19:27;;;;;;;;;;;23.00;42.60;;;;;;1475840;40;19937;-72
2021/06/15 03:20:49;;;;;;;;;;;23.00;42.10;;;;;;1480844;40;19936;-72
2021/06/15 03:22:18;;;;;;;;;;;23.00;42.10;;;;;;1482837;40;20269;-72
2021/06/15 03:24:01;;;;;;;;;;;22.90;42.80;;;;;;1482571;40;19936;-73
2021/06/15 03:25:23;;;;;;;;;;;22.90;42.50;;;;;;1483053;40;19945;-71
2021/06/15 03:26:58;;;;;;;;;;;22.90;42.40;;;;;;1482267;40;20216;-72
2021/06/15 03:28:24;;;;;;;;;;;22.90;42.40;;;;;;1482167;40;20249;-73
2021/06/15 03:29:45;;;;;;;;;;;22.90;42.60;;;;;;1483422;40;19940;-73
2021/06/15 03:31:06;;;;;;;;;;;22.80;42.20;;;;;;1483021;40;19943;-73
2021/06/15 03:32:28;;;;;;;;;;;22.90;42.60;;;;;;1483306;40;19943;-72
2021/06/15 03:33:50;;;;;;;;;;;22.80;42.40;;;;;;1479424;40;19939;-73
2021/06/15 03:35:11;;;;;;;;;;;22.80;42.50;;;;;;1481939;40;19947;-72
2021/06/15 03:36:33;;;;;;;;;;;22.80;42.90;;;;;;1478993;40;19980;-72
2021/06/15 03:37:58;;;;;;;;;;;22.80;42.60;;;;;;1480683;40;20173;-73
2021/06/15 03:39:21;;;;;;;;;;;22.80;42.80;;;;;;1480663;40;19968;-73
2021/06/15 03:40:48;;;;;;;;;;;22.80;43.30;;;;;;1482899;40;19937;-73
2021/06/15 03:42:09;;;;;;;;;;;22.80;42.70;;;;;;1481638;40;20219;-73
2021/06/15 03:43:30;;;;;;;;;;;22.80;42.60;;;;;;1480873;40;19984;-72
2021/06/15 03:44:57;;;;;;;;;;;22.70;42.70;;;;;;1481886;40;20022;-73
2021/06/15 03:46:18;;;;;;;;;;;22.70;42.80;;;;;;1482206;40;19940;-72
2021/06/15 03:47:41;;;;;;;;;;;22.70;42.90;;;;;;1482029;40;20262;-72
2021/06/15 03:49:03;;;;;;;;;;;22.70;43.30;;;;;;1480199;40;20584;-73
2021/06/15 03:50:24;;;;;;;;;;;22.70;42.90;;;;;;1483558;40;19932;-73
2021/06/15 03:51:48;;;;;;;;;;;22.70;43.10;;;;;;1483021;40;19936;-73
2021/06/15 03:53:10;;;;;;;;;;;22.60;43.00;;;;;;1481308;40;19994;-73
2021/06/15 03:54:32;;;;;;;;;;;22.60;42.90;;;;;;1483588;40;20017;-73
2021/06/15 03:55:53;;;;;;;;;;;22.60;43.00;;;;;;1481211;40;20307;-73
2021/06/15 03:57:17;;;;;;;;;;;22.60;42.90;;;;;;1482214;40;19932;-73
2021/06/15 03:58:38;;;;;;;;;;;22.70;43.20;;;;;;1481545;40;19932;-73
2021/06/15 04:00:00;;;;;;;;;;;22.60;43.20;;;;;;1482466;40;19936;-73
2021/06/15 04:01:23;;;;;;;;;;;22.60;43.00;;;;;;1483867;40;19967;-72
2021/06/15 04:02:46;;;;;;;;;;;22.60;43.00;;;;;;1481530;40;19954;-73
2021/06/15 04:04:09;;;;;;;;;;;22.60;43.20;;;;;;1483590;40;19944;-72
2021/06/15 04:05:31;;;;;;;;;;;22.60;43.10;;;;;;1482579;40;19936;-72
2021/06/15 04:06:54;;;;;;;;;;;22.60;43.00;;;;;;1482450;40;19932;-72
2021/06/15 04:08:15;;;;;;;;;;;22.60;43.20;;;;;;1482228;40;19968;-72
2021/06/15 04:09:39;;;;;;;;;;;22.60;43.60;;;;;;1484221;40;19963;-74
2021/06/15 04:11:00;;;;;;;;;;;22.60;43.90;;;;;;1484330;40;19972;-74
2021/06/15 04:12:24;;;;;;;;;;;22.60;44.10;;;;;;1483846;40;19955;-73
2021/06/15 04:13:45;;;;;;;;;;;22.60;44.10;;;;;;1481718;40;19936;-74
2021/06/15 04:15:08;;;;;;;;;;;22.50;44.10;;;;;;1482360;40;19940;-74
2021/06/15 04:16:28;;;;;;;;;;;22.50;44.00;;;;;;1483492;40;20172;-73
2021/06/15 04:17:50;;;;;;;;;;;22.50;43.90;;;;;;1481289;40;19940;-73
2021/06/15 04:19:16;;;;;;;;;;;22.50;44.00;;;;;;1482688;40;20050;-74
2021/06/15 04:20:39;;;;;;;;;;;22.50;44.60;;;;;;1484071;40;19936;-73
2021/06/15 04:22:00;;;;;;;;;;;22.50;44.20;;;;;;1483920;40;19972;-73
2021/06/15 04:23:27;;;;;;;;;;;22.50;44.10;;;;;;1483759;40;19932;-74
2021/06/15 04:24:49;;;;;;;;;;;22.40;43.80;;;;;;1485231;40;19940;-73
2021/06/15 04:26:10;;;;;;;;;;;22.40;44.00;;;;;;1482857;40;19939;-72
2021/06/15 04:27:33;;;;;;;;;;;22.40;44.20;;;;;;1481904;40;20078;-73
2021/06/15 04:28:54;;;;;;;;;;;22.40;44.60;;;;;;1480643;40;19939;-73
2021/06/15 04:30:15;;;;;;;;;;;22.40;44.20;;;;;;1482008;40;19956;-72
2021/06/15 04:31:37;;;;;;;;;;;22.40;44.50;;;;;;1483619;40;19933;-72
2021/06/15 04:33:00;;;;;;;;;;;22.40;44.80;;;;;;1481668;40;19940;-74
2021/06/15 04:34:23;;;;;;;;;;;22.40;45.00;;;;;;1479923;40;19959;-73
2021/06/15 04:35:48;;;;;;;;;;;22.40;45.20;;;;;;1483675;40;19944;-73
2021/06/15 04:37:10;;;;;;;;;;;22.40;45.30;;;;;;1482254;40;19937;-72
2021/06/15 04:38:34;;;;;;;;;;;22.40;45.80;;;;;;1481461;40;19937;-73
2021/06/15 04:39:57;;;;;;;;;;;22.40;46.60;;;;;;1483026;40;19936;-73
2021/06/15 04:41:23;;;;;;;;;;;22.40;45.30;;;;;;1482384;40;20204;-72
2021/06/15 04:42:54;;;;;;;;;;;22.40;45.60;;;;;;1483374;40;19973;-73
2021/06/15 04:44:16;;;;;;;;;;;22.30;45.00;;;;;;1482709;40;20041;-72
2021/06/15 04:45:41;;;;;;;;;;;22.30;45.40;;;;;;1482535;40;19936;-73
2021/06/15 04:47:05;;;;;;;;;;;22.30;45.30;;;;;;1481874;40;20342;-73
2021/06/15 04:48:30;;;;;;;;;;;22.30;45.80;;;;;;1481290;40;19940;-72
2021/06/15 04:50:03;;;;;;;;;;;22.30;46.00;;;;;;1482572;40;20298;-73
2021/06/15 04:51:24;;;;;;;;;;;22.30;45.60;;;;;;1482299;40;19954;-73
2021/06/15 04:52:46;;;;;;;;;;;22.20;45.30;;;;;;1483451;40;19947;-72
2021/06/15 04:54:09;;;;;;;;;;;22.30;45.10;;;;;;1481357;40;20318;-72
2021/06/15 04:55:32;;;;;;;;;;;22.20;44.80;;;;;;1480253;40;19943;-72
2021/06/15 04:56:54;;;;;;;;;;;22.20;45.00;;;;;;1482526;40;19948;-73
2021/06/15 04:58:14;;;;;;;;;;;22.20;45.10;;;;;;1480844;40;19932;-72
2021/06/15 04:59:36;;;;;;;;;;;22.30;45.20;;;;;;1483437;40;19937;-72
2021/06/15 05:01:00;;;;;;;;;;;22.20;45.00;;;;;;1478220;40;20603;-73
2021/06/15 05:02:25;;;;;;;;;;;22.30;45.30;;;;;;1481787;40;19976;-73
2021/06/15 05:03:46;;;;;;;;;;;22.30;45.00;;;;;;1479352;40;19990;-73
2021/06/15 05:05:10;;;;;;;;;;;22.30;45.40;;;;;;1479321;40;19947;-72
2021/06/15 05:06:31;;;;;;;;;;;22.30;45.20;;;;;;1483927;40;20243;-74
2021/06/15 05:07:59;;;;;;;;;;;22.30;45.50;;;;;;1481849;40;19947;-73
2021/06/15 05:09:28;;;;;;;;;;;22.30;45.30;;;;;;1482326;40;19951;-73
2021/06/15 05:10:50;;;;;;;;;;;22.30;45.60;;;;;;1480699;40;19944;-73
2021/06/15 05:12:11;;;;;;;;;;;22.30;46.00;;;;;;1481393;40;19960;-73
2021/06/15 05:13:33;;;;;;;;;;;22.30;47.20;;;;;;1481898;40;20204;-72
2021/06/15 05:14:54;;;;;;;;;;;22.40;46.30;;;;;;1482076;40;19940;-73
2021/06/15 05:16:17;;;;;;;;;;;22.30;46.90;;;;;;1482532;40;20327;-72
2021/06/15 05:17:41;;;;;;;;;;;22.40;46.70;;;;;;1482157;40;20264;-72
2021/06/15 05:19:02;;;;;;;;;;;22.30;46.70;;;;;;1478959;40;19940;-73
2021/06/15 05:20:23;;;;;;;;;;;22.30;46.30;;;;;;1480673;40;19958;-73
2021/06/15 05:21:44;;;;;;;;;;;22.40;47.40;;;;;;1482921;40;19932;-73
2021/06/15 05:23:11;;;;;;;;;;;22.40;46.60;;;;;;1481740;40;19937;-72
2021/06/15 05:24:32;;;;;;;;;;;22.40;46.20;;;;;;1482882;40;19940;-72
2021/06/15 05:25:52;;;;;;;;;;;22.40;46.30;;;;;;1484079;40;19940;-74
2021/06/15 05:27:14;;;;;;;;;;;22.40;46.40;;;;;;1481811;40;19936;-73
2021/06/15 05:28:35;;;;;;;;;;;22.40;46.60;;;;;;1483321;40;19932;-72
2021/06/15 05:29:56;;;;;;;;;;;22.40;46.30;;;;;;1481801;40;19949;-72
2021/06/15 05:31:17;;;;;;;;;;;22.40;46.20;;;;;;1482340;40;19968;-73
2021/06/15 05:32:38;;;;;;;;;;;22.30;46.00;;;;;;1483151;40;20270;-73
2021/06/15 05:33:58;;;;;;;;;;;22.40;46.00;;;;;;1478834;40;19968;-72
2021/06/15 05:35:19;;;;;;;;;;;22.40;46.30;;;;;;1481179;40;20052;-72
2021/06/15 05:36:40;;;;;;;;;;;22.40;46.40;;;;;;1481815;40;19960;-73
2021/06/15 05:38:01;;;;;;;;;;;22.40;46.30;;;;;;1482120;40;19948;-72
2021/06/15 05:39:22;;;;;;;;;;;22.40;46.20;;;;;;1481180;40;20027;-73
2021/06/15 05:40:45;;;;;;;;;;;22.40;46.20;;;;;;1482562;40;19951;-72
2021/06/15 05:42:06;;;;;;;;;;;22.40;46.80;;;;;;1481403;40;19944;-73
2021/06/15 05:43:27;;;;;;;;;;;22.50;46.30;;;;;;1482908;40;20025;-73
2021/06/15 05:44:48;;;;;;;;;;;22.50;46.10;;;;;;1485180;40;19944;-73
2021/06/15 05:46:08;;;;;;;;;;;22.50;46.10;;;;;;1483073;40;19939;-73
2021/06/15 05:47:29;;;;;;;;;;;22.50;46.40;;;;;;1482697;40;20204;-73
2021/06/15 05:48:50;;;;;;;;;;;22.50;46.20;;;;;;1481595;40;19959;-73
2021/06/15 05:50:12;;;;;;;;;;;22.50;46.30;;;;;;1483772;40;19952;-74
2021/06/15 05:51:34;;;;;;;;;;;22.50;46.40;;;;;;1481560;40;19933;-74
2021/06/15 05:52:55;;;;;;;;;;;22.60;46.40;;;;;;1484155;40;19974;-73
2021/06/15 05:54:17;;;;;;;;;;;22.60;46.50;;;;;;1482050;40;19945;-73
2021/06/15 05:55:38;;;;;;;;;;;22.60;46.50;;;;;;1483267;39;19947;-72
2021/06/15 05:56:58;;;;;;;;;;;22.60;46.70;;;;;;1483411;40;19948;-73
2021/06/15 05:58:19;;;;;;;;;;;22.60;46.40;;;;;;1481583;40;19947;-73
2021/06/15 05:59:40;;;;;;;;;;;22.60;46.20;;;;;;1482322;40;19941;-72
2021/06/15 06:01:01;;;;;;;;;;;22.60;46.40;;;;;;1482302;40;19936;-73
2021/06/15 06:02:21;;;;;;;;;;;22.60;46.50;;;;;;1482237;40;19936;-73
2021/06/15 06:03:46;;;;;;;;;;;22.60;46.40;;;;;;1482908;40;19952;-73
2021/06/15 06:08:08;;;;;;;;;;;22.70;46.70;;;;;;1481619;40;19937;-72
2021/06/15 06:09:29;;;;;;;;;;;22.70;46.80;;;;;;1482088;40;19940;-72
2021/06/15 06:10:52;;;;;;;;;;;22.70;46.90;;;;;;1482302;40;20021;-73
2021/06/15 06:12:13;;;;;;;;;;;22.70;46.90;;;;;;1482941;40;19940;-72
2021/06/15 06:13:35;;;;;;;;;;;22.80;47.00;;;;;;1482068;40;20361;-72
2021/06/15 06:14:56;;;;;;;;;;;22.80;47.20;;;;;;1481909;40;19940;-72
2021/06/15 06:16:17;;;;;;;;;;;22.80;47.00;;;;;;1480736;40;20437;-72
2021/06/15 06:17:38;;;;;;;;;;;22.80;46.80;;;;;;1481375;40;19959;-72
2021/06/15 06:18:59;;;;;;;;;;;22.80;47.10;;;;;;1484072;40;19990;-73
2021/06/15 06:20:20;;;;;;;;;;;22.90;47.40;;;;;;1481385;40;20245;-73
2021/06/15 06:21:43;;;;;;;;;;;22.90;47.20;;;;;;1482264;40;19956;-72
2021/06/15 06:23:04;;;;;;;;;;;22.90;47.10;;;;;;1480986;40;19936;-72
2021/06/15 06:24:25;;;;;;;;;;;22.90;47.30;;;;;;1481652;40;19968;-72
2021/06/15 06:25:46;;;;;;;;;;;22.90;47.30;;;;;;1483021;40;20252;-72
2021/06/15 06:27:07;;;;;;;;;;;22.90;47.40;;;;;;1482842;40;19971;-72
2021/06/15 06:28:28;;;;;;;;;;;22.90;47.50;;;;;;1483083;40;20318;-72
2021/06/15 06:29:49;;;;;;;;;;;23.00;47.60;;;;;;1479698;40;19951;-72
2021/06/15 06:31:10;;;;;;;;;;;23.00;47.50;;;;;;1480434;40;19940;-72
2021/06/15 06:32:30;;;;;;;;;;;23.00;47.70;;;;;;1482677;40;19940;-72
2021/06/15 06:33:51;;;;;;;;;;;23.00;47.70;;;;;;1484116;40;20288;-72
2021/06/15 06:35:12;;;;;;;;;;;23.00;48.30;;;;;;1482552;40;19939;-72
2021/06/15 06:36:33;;;;;;;;;;;23.10;47.90;;;;;;1482079;40;19959;-72
2021/06/15 06:37:54;;;;;;;;;;;23.00;47.80;;;;;;1481915;40;20172;-72
2021/06/15 06:39:15;;;;;;;;;;;23.00;48.00;;;;;;1482955;40;19948;-73
2021/06/15 06:40:36;;;;;;;;;;;23.10;48.60;;;;;;1482665;40;19947;-72
2021/06/15 06:41:57;;;;;;;;;;;23.10;48.50;;;;;;1482909;40;20306;-72
2021/06/15 06:43:17;;;;;;;;;;;23.10;48.20;;;;;;1483588;40;19940;-71
2021/06/15 06:44:38;;;;;;;;;;;23.10;47.90;;;;;;1482269;40;19936;-72
2021/06/15 06:45:59;;;;;;;;;;;23.20;48.00;;;;;;1483507;40;19983;-71
2021/06/15 06:47:20;;;;;;;;;;;23.20;47.90;;;;;;1483656;40;20184;-71
2021/06/15 06:48:40;;;;;;;;;;;23.20;47.80;;;;;;1481517;40;19948;-71
2021/06/15 06:50:02;;;;;;;;;;;23.20;47.70;;;;;;1481414;40;19932;-72
2021/06/15 06:51:23;;;;;;;;;;;23.20;48.00;;;;;;1483599;40;19932;-71
2021/06/15 06:52:44;;;;;;;;;;;23.20;48.10;;;;;;1481950;40;19940;-71
2021/06/15 06:54:05;;;;;;;;;;;23.30;48.20;;;;;;1482147;40;19932;-71
2021/06/15 06:55:28;;;;;;;;;;;23.30;48.10;;;;;;1482866;40;19939;-72
2021/06/15 06:56:49;;;;;;;;;;;23.30;47.90;;;;;;1481936;40;19970;-72
2021/06/15 06:58:10;;;;;;;;;;;23.30;47.80;;;;;;1483106;40;20033;-71
2021/06/15 06:59:31;;;;;;;;;;;23.30;47.80;;;;;;1482878;40;20207;-71
2021/06/15 07:00:52;;;;;;;;;;;23.40;47.90;;;;;;1481617;40;20029;-72
2021/06/15 07:02:13;;;;;;;;;;;23.40;48.00;;;;;;1483410;40;20155;-71
2021/06/15 07:03:33;;;;;;;;;;;23.40;48.00;;;;;;1482404;40;20037;-72
2021/06/15 07:04:54;;;;;;;;;;;23.50;48.10;;;;;;1481700;40;19943;-72
2021/06/15 07:06:15;;;;;;;;;;;23.50;47.90;;;;;;1484067;40;20370;-71
2021/06/15 07:07:36;;;;;;;;;;;23.50;47.90;;;;;;1480587;40;20033;-72
2021/06/15 07:08:57;;;;;;;;;;;23.50;48.00;;;;;;1481298;40;19940;-71
2021/06/15 07:10:18;;;;;;;;;;;23.50;47.90;;;;;;1480625;40;19944;-71
2021/06/15 07:11:39;;;;;;;;;;;23.50;47.90;;;;;;1482180;40;19971;-71
2021/06/15 07:13:00;;;;;;;;;;;23.50;48.20;;;;;;1483018;40;19933;-72
2021/06/15 07:14:21;;;;;;;;;;;23.50;48.20;;;;;;1482658;40;20172;-72
2021/06/15 07:15:42;;;;;;;;;;;23.50;48.10;;;;;;1483114;40;19947;-72
2021/06/15 07:17:03;;;;;;;;;;;23.60;48.00;;;;;;1479452;40;19960;-72
2021/06/15 07:18:24;;;;;;;;;;;23.60;47.90;;;;;;1482256;40;20291;-71
2021/06/15 07:19:45;;;;;;;;;;;23.70;48.00;;;;;;1483390;40;19944;-71
2021/06/15 07:21:06;;;;;;;;;;;23.70;48.00;;;;;;1481858;40;19940;-72
2021/06/15 07:22:27;;;;;;;;;;;23.70;48.30;;;;;;1482260;40;19981;-72
2021/06/15 07:23:48;;;;;;;;;;;23.70;48.70;;;;;;1482418;40;19940;-72
2021/06/15 07:25:09;;;;;;;;;;;23.70;48.30;;;;;;1483219;40;19940;-72
2021/06/15 07:26:30;;;;;;;;;;;23.80;48.50;;;;;;1481354;40;20495;-72
2021/06/15 07:27:51;;;;;;;;;;;23.80;48.40;;;;;;1483381;40;19944;-71
2021/06/15 07:29:11;;;;;;;;;;;23.80;48.90;;;;;;1482708;40;19936;-71
2021/06/15 07:30:32;;;;;;;;;;;23.80;48.60;;;;;;1482442;40;19940;-72
2021/06/15 07:31:54;;;;;;;;;;;23.90;48.70;;;;;;1482946;40;19947;-71
2021/06/15 07:33:15;;;;;;;;;;;23.90;48.50;;;;;;1481265;40;19948;-71
2021/06/15 07:34:36;;;;;;;;;;;23.90;48.70;;;;;;1483772;40;19944;-72
2021/06/15 07:35:56;;;;;;;;;;;23.90;48.20;;;;;;1483092;40;19940;-72
2021/06/15 07:37:17;;;;;;;;;;;23.90;48.30;;;;;;1482377;40;19940;-71
2021/06/15 07:38:38;;;;;;;;;;;23.90;48.10;;;;;;1480179;40;20481;-72
2021/06/15 07:39:59;;;;;;;;;;;23.90;48.00;;;;;;1481127;40;19936;-71
2021/06/15 07:41:20;;;;;;;;;;;24.00;48.00;;;;;;1482191;40;19985;-71
2021/06/15 07:42:41;;;;;;;;;;;24.00;47.90;;;;;;1482148;40;19952;-71
2021/06/15 07:44:01;;;;;;;;;;;24.10;48.00;;;;;;1481855;40;20031;-71
2021/06/15 07:45:23;;;;;;;;;;;24.10;48.10;;;;;;1481667;40;20022;-71
2021/06/15 07:46:44;;;;;;;;;;;24.10;48.20;;;;;;1480908;40;19936;-71
2021/06/15 07:48:05;;;;;;;;;;;24.10;48.10;;;;;;1481381;40;19933;-72
2021/06/15 07:49:26;;;;;;;;;;;24.10;47.90;;;;;;1482248;40;19933;-71
2021/06/15 07:50:47;;;;;;;;;;;24.10;47.80;;;;;;1482374;40;20298;-72
2021/06/15 07:52:08;;;;;;;;;;;24.10;47.80;;;;;;1482273;40;20181;-71
2021/06/15 07:53:28;;;;;;;;;;;24.20;48.30;;;;;;1480988;40;20007;-71
2021/06/15 07:54:49;;;;;;;;;;;24.20;48.20;;;;;;1480771;40;20249;-72
2021/06/15 07:56:10;;;;;;;;;;;24.20;48.40;;;;;;1481850;40;20470;-71
2021/06/15 07:57:31;;;;;;;;;;;24.20;48.20;;;;;;1483298;40;20009;-71
2021/06/15 07:58:52;;;;;;;;;;;24.30;48.50;;;;;;1482885;40;20164;-71
2021/06/15 08:00:13;;;;;;;;;;;24.30;48.60;;;;;;1482264;40;19956;-71
2021/06/15 08:01:34;;;;;;;;;;;24.30;48.30;;;;;;1483970;40;19972;-71
2021/06/15 08:02:55;;;;;;;;;;;24.40;48.30;;;;;;1483111;40;19943;-71